x

Buoy I01 - Eastern Maine Shelf (44034) Wave Buoy

11:04pm - Thu 23rd Mar 2017 All times are EDT. -4 hours from GMT.

  • Sig Wave height 3.0ft
  • Peak Period 4s
  • Wind
    20mph, 22mph gusts
  • Sea Temp 39°f
  • Air Temp 27°f
  • Sea Pressure 1031.3mb
  • Buoy I01 - Eastern Maine Shelf
  • Buoy I01 - Eastern Maine Shelf

More Historic Weather Station data

Upgrade to MSW Pro to gain access to the past 30 days of data for over 8000 Wavebouys and Weather Stations around the globe.

Join Pro

Comparision Forecast

View Surf forecast
   
Thu 03/23 11:04pm 3ft 4s 20 22 mph 1031.3mb 39f 27f
10:04pm 3.5ft 4s 22 27 mph 1030.8mb 39f 28f
9:04pm 3.5ft 4s 22 29 mph 1030.5mb 39f 28f
8:04pm 3.5ft 4s 25 29 mph 1028.5mb 39f 29f
7:04pm 4.5ft 4s 22 27 mph 1027.3mb 39f 30f
6:04pm 4.5ft 4s 25 29 mph 1026.3mb 40f 30f
5:04pm 3.5ft 4s 27 34 mph 1025.5mb 39f 30f
4:04pm 3ft 4s 20 25 mph 1025.2mb 39f 29f
3:04pm 3.5ft 4s 25 31 mph 1024.9mb 39f 28f
2:04pm 3.5ft 4s 22 29 mph 1025mb 39f 26f
1:04pm 3.5ft 4s 22 29 mph 1025.3mb 39f 24f
12:04pm 3.5ft 4s 22 27 mph 1025.7mb 39f 22f
11:04am 4ft 4s 20 25 mph 1025.8mb 39f 20f
10:04am 4.5ft 5s 25 31 mph 1025.5mb 39f 19f
9:04am 5ft 5s 27 34 mph 1025.5mb 39f 17f
8:04am 4.5ft 5s 29 34 mph 1025mb 39f 17f
7:04am 5ft 5s 29 36 mph 1024.2mb 39f 17f
6:04am 6ft 5s 29 34 mph 1023.1mb 39f 17f
5:04am 5.5ft 5s 29 38 mph 1022.1mb 39f 18f
4:04am 6ft 5s 29 36 mph 1021.6mb 39f 18f
3:04am 5.5ft 5s 31 38 mph 1020.8mb 38f 18f
2:04am 6ft 5s 29 40 mph 1020.1mb 38f 18f
1:04am 6.5ft 5s 29 40 mph 1019.4mb 38f 19f
12:04am 6.5ft 5s 36 43 mph 1018.3mb 38f 19f
Wed 03/22 11:04pm 6.5ft 5s 34 45 mph 1017.2mb 39f 21f
10:04pm 6.5ft 5s 36 43 mph 1016.4mb 39f 21f
9:04pm 5.5ft 5s 34 40 mph 1015.2mb 39f 23f
8:04pm 5.5ft 5s 31 40 mph 1013.8mb 39f 23f
7:04pm 6.5ft 5s 31 43 mph 1012.5mb 39f 24f
6:04pm 5.5ft 5s 34 40 mph 1011mb 39f 23f
5:04pm 5.5ft 5s 29 36 mph 1009.6mb 39f 23f
4:04pm 5ft 5s 29 43 mph 1008.4mb 39f 24f
3:04pm 5ft 4s 29 36 mph 1007.5mb 38f 24f
2:04pm 5ft 5s 29 36 mph 1006.8mb 38f 24f
1:04pm 5ft 5s 31 38 mph 1006mb 38f 25f
12:04pm 4.5ft 5s 29 38 mph 1005.1mb 39f 28f
11:04am 1.6ft 2s 29 34 mph 1003.8mb 39f 33f
10:04am 1ft 5s 9 13 mph 1003.9mb 40f 38f
9:04am 2.5ft 11s 7
mph
1003.6mb 40f 39f
8:04am 2.5ft 11s 9
mph
1003.4mb 40f 39f
7:04am 3.5ft 11s 7
mph
1003.5mb 40f 38f
6:04am 2.5ft 11s 9
mph
1003.9mb 40f 38f
5:04am  -   -  11 13 mph 1004.1mb 40f 39f
4:04am 2ft 11s 7 9 mph 1004.2mb 40f 39f
3:04am  -   -  9
mph
1004.7mb 40f 40f
2:04am 2ft 11s 4 7 mph 1005.6mb 40f 40f
1:04am 2.5ft 11s 9 11 mph 1006.2mb 40f 40f
12:04am 2ft 11s 7 9 mph 1006.5mb 39f 40f
Tue 03/21 11:04pm 2.5ft 11s 7 9 mph 1007.2mb 40f 40f
10:04pm 2.5ft 11s 7 9 mph 1007.4mb 40f 40f
9:04pm 2.5ft 11s 4 7 mph 1007.7mb 40f 40f
8:04pm 2.5ft 11s 4 7 mph 1007.5mb 40f 40f
7:04pm 3ft 11s 9 11 mph 1007.3mb 40f 40f
6:04pm  -   -  13 16 mph 1007mb 40f 41f
5:04pm 3.5ft 11s 13 16 mph 1006.5mb 40f 41f
4:04pm 1.3ft 5s 11 13 mph 1006.5mb 40f 41f
3:04pm 2.5ft 11s 9 11 mph 1006.4mb 40f 41f
2:04pm 3ft 11s 7 9 mph 1007.2mb 40f 41f
1:04pm 3ft 11s 7 9 mph 1007.9mb 40f 40f
12:04pm 3ft 11s 7 9 mph 1008.5mb 40f 40f
11:04am 3.5ft 11s 9 11 mph 1009mb 40f 38f
10:04am 3.5ft 11s 7 9 mph 1009.2mb 40f 37f
9:04am 4ft 11s 4 7 mph 1008.9mb 40f 36f
8:04am 4.5ft 11s 4
mph
1009.1mb 40f 35f
7:04am 5ft 11s 7
mph
1008.9mb 40f 35f
6:04am 5ft 11s 11 13 mph 1008.9mb 40f 35f
5:04am 5ft 11s 13 16 mph 1008.8mb 40f 35f
4:04am 5ft 11s 13 18 mph 1008.8mb 40f 36f
3:04am 4.5ft 6s 13 16 mph 1008.9mb 40f 36f
2:04am 6ft 11s 16 18 mph 1009.7mb 40f 36f
1:04am 4ft 6s 16 20 mph 1009.4mb 40f 37f
12:04am 6ft 11s 18 20 mph 1009.6mb 40f 38f
Mon 03/20 11:04pm 5ft 11s 16 18 mph 1010.5mb 40f 39f
10:04pm 6ft 11s 13 16 mph 1011.1mb 40f 40f
9:04pm 6ft 11s 13 16 mph 1011.6mb 40f 41f
8:04pm 6ft 11s 11 13 mph 1012mb 40f 41f
7:04pm 6.5ft 11s 11 13 mph 1011.3mb 40f 42f
6:04pm 6ft 11s 13 16 mph 1010.8mb 40f 43f
5:04pm 6.5ft 11s 11 13 mph 1010.9mb 40f 42f
4:04pm 7ft 11s 11 13 mph 1011.1mb 40f 42f
3:04pm 7ft 11s 13 16 mph 1011.6mb 40f 41f
2:04pm 7ft 11s 16 18 mph 1012.9mb 40f 40f
1:04pm 8ft 8s 18 20 mph 1013.5mb 40f 39f
12:04pm 7ft 8s 20 22 mph 1014.3mb 40f 38f
11:04am 7.5ft 8s 25 29 mph 1014.8mb 40f 36f
10:04am 9ft 11s 27 31 mph 1014.8mb 40f 35f
9:04am 9ft 8s 27 31 mph 1014.8mb 40f 34f
8:04am 9.5ft 8s 27 31 mph 1014.6mb 40f 33f
7:04am 9.5ft 11s 29 36 mph 1014.3mb 40f 33f
6:04am 10ft 11s 29 34 mph 1014.3mb 40f 33f
5:04am 10ft 11s 27 34 mph 1014.3mb 40f 34f